Time,TemperatureF,DewpointF,PressureIn,WindDirection,WindDirectionDegrees,WindSpeedMPH,WindSpeedGustMPH,Humidity,HourlyPrecipIn,Conditions,Clouds,dailyrainin,SoftwareType,DateUTC
2013-05-29 00:32:00,73.0,-99.9,-100.00,ENE,61,2.0,3.0,-999,-99.99,,,-99.99,,2013-05-29 06:32:00,
2013-05-29 00:42:00,73.0,-99.9,-100.00,ENE,61,2.0,3.0,-999,-99.99,,,-99.99,,2013-05-29 06:42:00,
2013-05-29 01:53:00,69.0,-99.9,-100.00,ENE,72,1.0,3.0,-999,-99.99,,,-99.99,,2013-05-29 07:53:00,
2013-05-29 02:00:00,65.0,-99.9,-100.00,NE,46,2.0,2.0,-999,-99.99,,,-99.99,,2013-05-29 08:00:00,
2013-05-29 02:02:00,69.0,-99.9,-100.00,ENE,72,1.0,3.0,-999,-99.99,,,-99.99,,2013-05-29 08:02:00,
2013-05-29 02:32:00,65.0,-99.9,-100.00,NE,46,2.0,2.0,-999,-99.99,,,-99.99,,2013-05-29 08:32:00,
2013-05-29 02:42:00,65.0,-99.9,-100.00,NE,46,2.0,2.0,-999,-99.99,,,-99.99,,2013-05-29 08:42:00,
2013-05-29 02:52:00,65.0,-99.9,-100.00,NE,46,2.0,2.0,-999,-99.99,,,-99.99,,2013-05-29 08:52:00,
2013-05-29 05:00:00,58.0,-99.9,-100.00,NE,54,4.0,4.0,-999,-99.99,,,-99.99,,2013-05-29 11:00:00,
2013-05-29 05:40:00,61.0,-99.9,-100.00,ENE,78,3.0,4.0,-999,-99.99,,,-99.99,,2013-05-29 11:40:00,
2013-05-29 05:52:00,58.0,-99.9,-100.00,NE,54,4.0,4.0,-999,-99.99,,,-99.99,,2013-05-29 11:52:00,
2013-05-29 06:10:00,59.0,-99.9,-100.00,East,81,2.0,3.0,-999,-99.99,,,-99.99,,2013-05-29 12:10:00,
2013-05-29 06:22:00,61.0,-99.9,-100.00,ENE,78,3.0,4.0,-999,-99.99,,,-99.99,,2013-05-29 12:22:00,
2013-05-29 06:32:00,61.0,-99.9,-100.00,ENE,78,3.0,4.0,-999,-99.99,,,-99.99,,2013-05-29 12:32:00,
2013-05-29 06:52:00,59.0,-99.9,-100.00,East,81,2.0,3.0,-999,-99.99,,,-99.99,,2013-05-29 12:52:00,
2013-05-29 07:02:00,59.0,-99.9,-100.00,East,81,2.0,3.0,-999,-99.99,,,-99.99,,2013-05-29 13:02:00,
2013-05-29 07:40:00,71.0,-99.9,-100.00,North,-999,-999.0,-999.0,-999,-99.99,,,-99.99,,2013-05-29 13:40:00,
2013-05-29 08:02:00,67.0,-99.9,-100.00,ENE,65,5.0,6.0,-999,-99.99,,,-99.99,,2013-05-29 14:02:00,
2013-05-29 08:11:00,67.0,-99.9,-100.00,ENE,65,5.0,6.0,-999,-99.99,,,-99.99,,2013-05-29 14:11:00,
2013-05-29 08:22:00,71.0,-99.9,-100.00,North,-999,-999.0,-999.0,-999,-99.99,,,-99.99,,2013-05-29 14:22:00,
2013-05-29 08:32:00,71.0,-99.9,-100.00,North,-999,-999.0,-999.0,-999,-99.99,,,-99.99,,2013-05-29 14:32:00,
2013-05-29 09:30:00,73.0,-99.9,-100.00,ENE,68,5.0,9.0,-999,-99.99,,,-99.99,,2013-05-29 15:30:00,
2013-05-29 09:53:00,73.0,-99.9,-100.00,ENE,72,5.0,7.0,-999,-99.99,,,-99.99,,2013-05-29 15:53:00,
2013-05-29 10:03:00,73.0,-99.9,-100.00,ENE,72,5.0,7.0,-999,-99.99,,,-99.99,,2013-05-29 16:03:00,
2013-05-29 10:22:00,73.0,-99.9,-100.00,ENE,68,5.0,9.0,-999,-99.99,,,-99.99,,2013-05-29 16:22:00,
2013-05-29 10:40:00,76.0,-99.9,-100.00,ENE,76,3.0,9.0,-999,-99.99,,,-99.99,,2013-05-29 16:40:00,
2013-05-29 11:02:00,74.0,-99.9,-100.00,NE,39,6.0,8.0,-999,-99.99,,,-99.99,,2013-05-29 17:02:00,
2013-05-29 11:12:00,74.0,-99.9,-100.00,NE,39,6.0,8.0,-999,-99.99,,,-99.99,,2013-05-29 17:12:00,
2013-05-29 11:22:00,76.0,-99.9,-100.00,ENE,76,3.0,9.0,-999,-99.99,,,-99.99,,2013-05-29 17:22:00,
2013-05-29 11:33:00,76.0,-99.9,-100.00,ENE,76,3.0,9.0,-999,-99.99,,,-99.99,,2013-05-29 17:33:00,
2013-05-29 11:40:00,77.0,-99.9,-100.00,NE,51,9.0,10.0,-999,-99.99,,,-99.99,,2013-05-29 17:40:00,
2013-05-29 12:20:00,77.0,-99.9,-100.00,ENE,63,7.0,9.0,-999,-99.99,,,-99.99,,2013-05-29 18:20:00,
2013-05-29 12:22:00,77.0,-99.9,-100.00,NE,51,9.0,10.0,-999,-99.99,,,-99.99,,2013-05-29 18:22:00,
2013-05-29 12:32:00,77.0,-99.9,-100.00,NE,51,9.0,10.0,-999,-99.99,,,-99.99,,2013-05-29 18:32:00,
2013-05-29 13:02:00,77.0,-99.9,-100.00,ENE,63,7.0,9.0,-999,-99.99,,,-99.99,,2013-05-29 19:02:00,
2013-05-29 13:12:00,77.0,-99.9,-100.00,ENE,63,7.0,9.0,-999,-99.99,,,-99.99,,2013-05-29 19:12:00,
2013-05-29 13:30:00,80.0,-99.9,-100.00,NNE,27,3.0,7.0,-999,-99.99,,,-99.99,,2013-05-29 19:30:00,
2013-05-29 14:23:00,80.0,-99.9,-100.00,NNE,27,3.0,7.0,-999,-99.99,,,-99.99,,2013-05-29 20:23:00,
2013-05-29 16:30:00,84.0,-99.9,-100.00,East,90,6.0,13.0,-999,-99.99,,,-99.99,,2013-05-29 22:30:00,
2013-05-29 17:22:00,84.0,-99.9,-100.00,East,90,6.0,13.0,-999,-99.99,,,-99.99,,2013-05-29 23:22:00,
2013-05-29 17:30:00,83.0,-99.9,-100.00,ESE,120,5.0,11.0,-999,-99.99,,,-99.99,,2013-05-29 23:30:00,
2013-05-29 18:22:00,83.0,-99.9,-100.00,ESE,120,5.0,11.0,-999,-99.99,,,-99.99,,2013-05-30 00:22:00,
2013-05-29 19:10:00,81.0,-99.9,-100.00,ENE,78,9.0,11.0,-999,-99.99,,,-99.99,,2013-05-30 01:10:00,
2013-05-29 19:53:00,81.0,-99.9,-100.00,ENE,78,9.0,11.0,-999,-99.99,,,-99.99,,2013-05-30 01:53:00,
2013-05-29 20:02:00,81.0,-99.9,-100.00,ENE,78,9.0,11.0,-999,-99.99,,,-99.99,,2013-05-30 02:02:00,
2013-05-29 20:32:00,80.0,-99.9,-100.00,ENE,70,8.0,9.0,-999,-99.99,,,-99.99,,2013-05-30 02:32:00,
2013-05-29 20:42:00,80.0,-99.9,-100.00,ENE,70,8.0,9.0,-999,-99.99,,,-99.99,,2013-05-30 02:42:00,
2013-05-29 20:52:00,80.0,-99.9,-100.00,ENE,70,8.0,9.0,-999,-99.99,,,-99.99,,2013-05-30 02:52:00,
2013-05-29 22:03:00,76.0,-99.9,-100.00,ENE,70,5.0,6.0,-999,-99.99,,,-99.99,,2013-05-30 04:03:00,
2013-05-29 22:13:00,76.0,-99.9,-100.00,ENE,70,5.0,6.0,-999,-99.99,,,-99.99,,2013-05-30 04:13:00,
2013-05-29 22:23:00,76.0,-99.9,-100.00,ENE,70,5.0,6.0,-999,-99.99,,,-99.99,,2013-05-30 04:23:00,
2013-05-29 23:22:00,73.0,-99.9,-100.00,East,87,4.0,5.0,-999,-99.99,,,-99.99,,2013-05-30 05:22:00,
2013-05-29 23:32:00,73.0,-99.9,-100.00,ENE,78,3.0,5.0,-999,-99.99,,,-99.99,,2013-05-30 05:32:00,
2013-05-29 23:43:00,73.0,-99.9,-100.00,ENE,78,3.0,5.0,-999,-99.99,,,-99.99,,2013-05-30 05:43:00,
2013-05-29 23:53:00,73.0,-99.9,-100.00,ENE,78,3.0,5.0,-999,-99.99,,,-99.99,,2013-05-30 05:53:00,